createdAt,value
2023-04-02T00:00:59.727Z,20.29
2023-04-02T00:01:59.943Z,20.29
2023-04-02T00:02:59.897Z,20.29
2023-04-02T00:03:59.973Z,20.28
2023-04-02T00:04:59.951Z,20.29
2023-04-02T00:06:00.014Z,20.28
2023-04-02T00:07:00.058Z,20.28
2023-04-02T00:08:00.159Z,20.28
2023-04-02T00:09:00.180Z,20.29
2023-04-02T00:10:00.236Z,20.29
2023-04-02T00:11:00.294Z,20.28
2023-04-02T00:12:00.413Z,20.28
2023-04-02T00:13:00.428Z,20.29
2023-04-02T00:14:00.494Z,20.28
2023-04-02T00:15:00.554Z,20.28
2023-04-02T00:16:00.639Z,20.28
2023-04-02T00:17:00.668Z,20.28
2023-04-02T00:18:00.769Z,20.28
2023-04-02T00:19:00.879Z,20.27
2023-04-02T00:20:00.840Z,20.28
2023-04-02T00:21:00.916Z,20.27
2023-04-02T00:22:00.981Z,20.27
2023-04-02T00:23:01.037Z,20.27
2023-04-02T00:24:01.117Z,20.27
2023-04-02T00:25:01.191Z,20.27
2023-04-02T00:26:01.239Z,20.27
2023-04-02T00:27:01.307Z,20.26
2023-04-02T00:28:01.370Z,20.26
2023-04-02T00:29:01.429Z,20.26
2023-04-02T00:30:03.455Z,20.26
2023-04-02T00:31:01.560Z,20.27
2023-04-02T00:32:01.629Z,20.26
2023-04-02T00:33:01.703Z,20.26
2023-04-02T00:34:01.719Z,20.26
2023-04-02T00:35:01.802Z,20.26
2023-04-02T00:36:01.884Z,20.26
2023-04-02T00:37:01.962Z,20.26
2023-04-02T00:38:01.977Z,20.26
2023-04-02T00:39:02.049Z,20.26
2023-04-02T00:40:02.119Z,20.26
2023-04-02T00:41:02.165Z,20.26
2023-04-02T00:42:02.226Z,20.26
2023-04-02T00:43:02.296Z,20.26
2023-04-02T00:44:02.363Z,20.26
2023-04-02T00:45:02.451Z,20.25
2023-04-02T00:46:02.565Z,20.26
2023-04-02T00:47:02.559Z,20.25
2023-04-02T00:48:02.670Z,20.25
2023-04-02T00:49:02.685Z,20.25
2023-04-02T00:50:02.749Z,20.25
2023-04-02T00:51:02.952Z,20.24
2023-04-02T00:52:02.873Z,20.24
2023-04-02T00:53:02.944Z,20.25
2023-04-02T00:54:03.010Z,20.25
2023-04-02T00:55:03.088Z,20.24
2023-04-02T00:56:03.161Z,20.24
2023-04-02T00:57:03.214Z,20.24
2023-04-02T00:58:03.281Z,20.24
2023-04-02T00:59:03.347Z,20.25
2023-04-02T01:00:03.400Z,20.24
2023-04-02T01:01:03.473Z,20.24
2023-04-02T01:02:03.525Z,20.24
2023-04-02T01:03:03.646Z,20.24
2023-04-02T01:04:03.631Z,20.24
2023-04-02T01:05:03.746Z,20.24
2023-04-02T01:06:03.756Z,20.23
2023-04-02T01:07:03.818Z,20.23
2023-04-02T01:08:03.884Z,20.23
2023-04-02T01:09:03.991Z,20.23
2023-04-02T01:10:04.021Z,20.23
2023-04-02T01:11:04.112Z,20.23
2023-04-02T01:12:04.156Z,20.24
2023-04-02T01:13:04.216Z,20.23
2023-04-02T01:14:04.268Z,20.22
2023-04-02T01:15:04.349Z,20.23
2023-04-02T01:16:04.422Z,20.23
2023-04-02T01:17:04.458Z,20.23
2023-04-02T01:18:04.525Z,20.22
2023-04-02T01:19:04.551Z,20.23
2023-04-02T01:20:04.622Z,20.22
2023-04-02T01:21:04.693Z,20.22
2023-04-02T01:22:04.750Z,20.22
2023-04-02T01:23:04.809Z,20.22
2023-04-02T01:24:04.886Z,20.23
2023-04-02T01:25:04.947Z,20.22
2023-04-02T01:26:05.019Z,20.23
2023-04-02T01:27:05.079Z,20.22
2023-04-02T01:28:05.152Z,20.23
2023-04-02T01:29:05.199Z,20.22
2023-04-02T01:30:05.267Z,20.22
2023-04-02T01:31:05.393Z,20.21
2023-04-02T01:32:05.412Z,20.22
2023-04-02T01:33:05.594Z,20.22
2023-04-02T01:34:05.567Z,20.22
2023-04-02T01:35:05.611Z,20.22
2023-04-02T01:36:05.708Z,20.21
2023-04-02T01:37:05.712Z,20.21
2023-04-02T01:38:06.015Z,20.22
2023-04-02T01:39:05.769Z,20.21
2023-04-02T01:40:05.769Z,20.21
2023-04-02T01:41:05.763Z,20.21
2023-04-02T01:42:05.758Z,20.21
2023-04-02T01:43:06.473Z,20.21
2023-04-02T01:44:05.809Z,20.21
2023-04-02T01:45:05.876Z,20.21
2023-04-02T01:46:05.967Z,20.20
2023-04-02T01:47:06.012Z,20.21
2023-04-02T01:48:06.113Z,20.21
2023-04-02T01:49:06.140Z,20.20
2023-04-02T01:50:06.210Z,20.20
2023-04-02T01:51:06.264Z,20.20
2023-04-02T01:52:06.302Z,20.21
2023-04-02T01:53:06.381Z,20.21
2023-04-02T01:54:06.436Z,20.21
2023-04-02T01:55:06.478Z,20.20
2023-04-02T01:56:06.550Z,20.20
2023-04-02T01:57:06.619Z,20.21
2023-04-02T01:58:06.648Z,20.20
2023-04-02T01:59:06.717Z,20.20
2023-04-02T02:00:06.813Z,20.19
2023-04-02T02:01:06.891Z,20.20
2023-04-02T02:02:06.957Z,20.20
2023-04-02T02:03:06.990Z,20.20
2023-04-02T02:04:07.031Z,20.20
2023-04-02T02:05:07.104Z,20.20
2023-04-02T02:06:07.171Z,20.20
2023-04-02T02:07:07.227Z,20.20
2023-04-02T02:08:07.290Z,20.20
2023-04-02T02:09:07.313Z,20.20
2023-04-02T02:10:07.368Z,20.19
2023-04-02T02:11:07.423Z,20.20
2023-04-02T02:12:07.487Z,20.19
2023-04-02T02:13:07.550Z,20.20
2023-04-02T02:14:07.579Z,20.19
2023-04-02T02:15:07.633Z,20.19
2023-04-02T02:16:07.740Z,20.19
2023-04-02T02:17:07.743Z,20.19
2023-04-02T02:18:07.820Z,20.19
2023-04-02T02:19:07.871Z,20.20
2023-04-02T02:20:07.948Z,20.19
2023-04-02T02:21:08.006Z,20.19
2023-04-02T02:22:08.065Z,20.20
2023-04-02T02:23:08.129Z,20.19
2023-04-02T02:24:08.179Z,20.19
2023-04-02T02:25:08.227Z,20.19
2023-04-02T02:26:08.285Z,20.19
2023-04-02T02:27:08.397Z,20.19
2023-04-02T02:28:08.413Z,20.19
2023-04-02T02:29:08.484Z,20.19
2023-04-02T02:30:08.544Z,20.18
2023-04-02T02:31:08.616Z,20.18
2023-04-02T02:32:08.748Z,20.18
2023-04-02T02:33:08.755Z,20.18
2023-04-02T02:34:08.836Z,20.18
2023-04-02T02:35:08.900Z,20.17
2023-04-02T02:36:09.078Z,20.18
2023-04-02T02:37:09.044Z,20.17
2023-04-02T02:38:09.107Z,20.17
2023-04-02T02:39:09.180Z,20.18
2023-04-02T02:40:09.262Z,20.17
2023-04-02T02:41:09.331Z,20.17
2023-04-02T02:42:09.406Z,20.18
2023-04-02T02:43:09.488Z,20.18
2023-04-02T02:44:09.593Z,20.17
2023-04-02T02:45:09.606Z,20.17
2023-04-02T02:46:10.500Z,20.17
2023-04-02T02:47:09.750Z,20.17
2023-04-02T02:48:09.815Z,20.17
2023-04-02T02:49:09.894Z,20.17
2023-04-02T02:50:09.971Z,20.17
2023-04-02T02:51:10.019Z,20.17
2023-04-02T02:52:10.084Z,20.17
2023-04-02T02:53:10.157Z,20.17
2023-04-02T02:54:10.238Z,20.17
2023-04-02T02:55:10.360Z,20.16
2023-04-02T02:56:10.361Z,20.17
2023-04-02T02:57:10.477Z,20.16
2023-04-02T02:58:10.498Z,20.17
2023-04-02T02:59:10.559Z,20.17
2023-04-02T03:00:10.626Z,20.16
2023-04-02T03:01:10.793Z,20.16
2023-04-02T03:02:10.782Z,20.16
2023-04-02T03:03:11.017Z,20.16
2023-04-02T03:04:11.017Z,20.17
2023-04-02T03:05:11.000Z,20.16
2023-04-02T03:06:11.061Z,20.16
2023-04-02T03:07:11.125Z,20.16
2023-04-02T03:08:11.237Z,20.16
2023-04-02T03:09:11.250Z,20.16
2023-04-02T03:10:11.317Z,20.16
2023-04-02T03:11:11.382Z,20.16
2023-04-02T03:12:11.449Z,20.16
2023-04-02T03:13:11.595Z,20.15
2023-04-02T03:14:11.589Z,20.15
2023-04-02T03:15:11.681Z,20.16
2023-04-02T03:16:11.783Z,20.15
2023-04-02T03:17:11.798Z,20.16
2023-04-02T03:18:11.877Z,20.15
2023-04-02T03:19:11.938Z,20.15
2023-04-02T03:20:12.006Z,20.14
2023-04-02T03:21:12.158Z,20.14
2023-04-02T03:22:12.125Z,20.15
2023-04-02T03:23:12.189Z,20.14
2023-04-02T03:24:12.253Z,20.15
2023-04-02T03:25:12.329Z,20.14
2023-04-02T03:26:12.398Z,20.15
2023-04-02T03:27:12.451Z,20.15
2023-04-02T03:28:12.519Z,20.15
2023-04-02T03:29:13.562Z,20.15
2023-04-02T03:30:12.655Z,20.14
2023-04-02T03:31:12.785Z,20.15
2023-04-02T03:32:12.810Z,20.14
2023-04-02T03:33:12.992Z,20.15
2023-04-02T03:34:12.944Z,20.15
2023-04-02T03:35:13.013Z,20.14
2023-04-02T03:36:13.162Z,20.15
2023-04-02T03:37:13.155Z,20.14
2023-04-02T03:38:13.223Z,20.14
2023-04-02T03:39:13.317Z,20.14
2023-04-02T03:40:13.507Z,20.14
2023-04-02T03:41:13.423Z,20.14
2023-04-02T03:42:13.493Z,20.14
2023-04-02T03:43:13.568Z,20.14
2023-04-02T03:44:13.640Z,20.14
2023-04-02T03:45:13.713Z,20.13
2023-04-02T03:46:13.818Z,20.13
2023-04-02T03:47:13.849Z,20.13
2023-04-02T03:48:13.899Z,20.13
2023-04-02T03:49:13.972Z,20.14
2023-04-02T03:50:14.040Z,20.14
2023-04-02T03:51:14.101Z,20.13
2023-04-02T03:52:14.152Z,20.13
2023-04-02T03:53:14.192Z,20.14
2023-04-02T03:54:14.218Z,20.13
2023-04-02T03:55:14.255Z,20.13
2023-04-02T03:56:14.311Z,20.13
2023-04-02T03:57:14.436Z,20.13
2023-04-02T03:58:14.411Z,20.13
2023-04-02T03:59:14.454Z,20.13
2023-04-02T04:00:14.503Z,20.13
2023-04-02T04:01:15.081Z,20.13
2023-04-02T04:02:14.631Z,20.13
2023-04-02T04:03:14.616Z,20.13
2023-04-02T04:04:14.699Z,20.12
2023-04-02T04:05:14.693Z,20.12
2023-04-02T04:06:14.734Z,20.12
2023-04-02T04:07:14.778Z,20.12
2023-04-02T04:08:14.836Z,20.12
2023-04-02T04:09:14.882Z,20.12
2023-04-02T04:10:14.984Z,20.13
2023-04-02T04:11:14.992Z,20.12
2023-04-02T04:12:15.050Z,20.12
2023-04-02T04:13:15.117Z,20.12
2023-04-02T04:14:15.177Z,20.11
2023-04-02T04:15:15.264Z,20.12
2023-04-02T04:16:15.342Z,20.12
2023-04-02T04:17:15.385Z,20.12
2023-04-02T04:18:15.448Z,20.12
2023-04-02T04:19:15.497Z,20.12
2023-04-02T04:20:15.559Z,20.11
2023-04-02T04:21:15.606Z,20.12
2023-04-02T04:22:15.666Z,20.11
2023-04-02T04:23:15.709Z,20.11
2023-04-02T04:24:15.765Z,20.11
2023-04-02T04:25:15.800Z,20.11
2023-04-02T04:26:15.861Z,20.12
2023-04-02T04:27:15.897Z,20.11
2023-04-02T04:28:15.945Z,20.10
2023-04-02T04:29:15.987Z,20.10
2023-04-02T04:30:16.040Z,20.10
2023-04-02T04:31:16.103Z,20.10
2023-04-02T04:32:16.191Z,20.10
2023-04-02T04:33:16.194Z,20.11
2023-04-02T04:34:16.235Z,20.10
2023-04-02T04:35:16.266Z,20.10
2023-04-02T04:36:16.356Z,20.10
2023-04-02T04:37:16.347Z,20.09
2023-04-02T04:38:16.379Z,20.10
2023-04-02T04:39:16.429Z,20.10
2023-04-02T04:40:16.497Z,20.10
2023-04-02T04:41:16.556Z,20.09
2023-04-02T04:42:16.604Z,20.10
2023-04-02T04:43:16.671Z,20.09
2023-04-02T04:44:16.727Z,20.10
2023-04-02T04:45:16.779Z,20.09
2023-04-02T04:46:16.880Z,20.09
2023-04-02T04:47:16.911Z,20.09
2023-04-02T04:48:16.970Z,20.09
2023-04-02T04:49:17.010Z,20.09
2023-04-02T04:50:17.053Z,20.09
2023-04-02T04:51:17.111Z,20.09
2023-04-02T04:52:17.151Z,20.09
2023-04-02T04:53:17.200Z,20.09
2023-04-02T04:54:17.252Z,20.09
2023-04-02T04:55:17.314Z,20.09
2023-04-02T04:56:19.590Z,20.09
2023-04-02T04:57:17.527Z,20.08
2023-04-02T04:58:17.573Z,20.09
2023-04-02T04:59:17.589Z,20.09
2023-04-02T05:00:17.616Z,20.09
2023-04-02T05:01:17.678Z,20.08
2023-04-02T05:02:17.713Z,20.08
2023-04-02T05:03:17.763Z,20.08
2023-04-02T05:04:17.892Z,20.07
2023-04-02T05:05:17.837Z,20.08
2023-04-02T05:06:17.876Z,20.08
2023-04-02T05:07:17.927Z,20.07
2023-04-02T05:08:18.617Z,20.08
2023-04-02T05:09:18.062Z,20.07
2023-04-02T05:10:18.106Z,20.08
2023-04-02T05:11:18.152Z,20.08
2023-04-02T05:12:18.291Z,20.08
2023-04-02T05:13:18.260Z,20.07
2023-04-02T05:14:18.322Z,20.07
2023-04-02T05:15:18.391Z,20.07
2023-04-02T05:16:18.499Z,20.07
2023-04-02T05:17:18.514Z,20.07
2023-04-02T05:18:18.576Z,20.07
2023-04-02T05:19:18.608Z,20.07
2023-04-02T05:20:18.622Z,20.07
2023-04-02T05:21:18.664Z,20.07
2023-04-02T05:22:18.728Z,20.07
2023-04-02T05:23:18.917Z,20.07
2023-04-02T05:24:18.818Z,20.07
2023-04-02T05:25:18.878Z,20.07
2023-04-02T05:26:18.950Z,20.07
2023-04-02T05:27:19.022Z,20.07
2023-04-02T05:28:19.159Z,20.07
2023-04-02T05:29:19.129Z,20.06
2023-04-02T05:30:20.252Z,20.07
2023-04-02T05:31:19.294Z,20.07
2023-04-02T05:32:19.296Z,20.06
2023-04-02T05:33:19.348Z,20.07
2023-04-02T05:34:19.392Z,20.07
2023-04-02T05:35:19.466Z,20.06
2023-04-02T05:36:19.521Z,20.06
2023-04-02T05:37:20.049Z,20.06
2023-04-02T05:38:19.536Z,20.06
2023-04-02T05:39:19.593Z,20.06
2023-04-02T05:40:19.675Z,20.06
2023-04-02T05:41:19.727Z,20.06
2023-04-02T05:42:19.785Z,20.06
2023-04-02T05:43:19.834Z,20.06
2023-04-02T05:44:19.862Z,20.06
2023-04-02T05:45:19.922Z,20.06
2023-04-02T05:46:20.004Z,20.06
2023-04-02T05:47:20.026Z,20.06
2023-04-02T05:48:20.066Z,20.07
2023-04-02T05:49:20.112Z,20.06
2023-04-02T05:50:20.167Z,20.06
2023-04-02T05:51:20.232Z,20.06
2023-04-02T05:52:20.284Z,20.06
2023-04-02T05:53:20.331Z,20.06
2023-04-02T05:54:20.399Z,20.06
2023-04-02T05:55:20.460Z,20.07
2023-04-02T05:56:20.507Z,20.06
2023-04-02T05:57:21.627Z,20.06
2023-04-02T05:58:35.438Z,20.05
2023-04-02T05:59:21.557Z,20.05
2023-04-02T06:00:20.539Z,20.06
2023-04-02T06:01:20.553Z,20.06
2023-04-02T06:02:20.695Z,20.07
2023-04-02T06:03:20.651Z,20.06
2023-04-02T06:04:20.561Z,20.06
2023-04-02T06:05:21.642Z,20.06
2023-04-02T06:06:20.573Z,20.07
2023-04-02T06:07:20.572Z,20.06
2023-04-02T06:08:20.571Z,20.06
2023-04-02T06:09:20.587Z,20.07
2023-04-02T06:10:20.761Z,20.06
2023-04-02T06:11:20.660Z,20.06
2023-04-02T06:12:20.755Z,20.06
2023-04-02T06:13:20.806Z,20.06
2023-04-02T06:14:20.866Z,20.07
2023-04-02T06:15:20.935Z,20.06
2023-04-02T06:16:21.001Z,20.06
2023-04-02T06:17:21.084Z,20.06
2023-04-02T06:18:21.134Z,20.06
2023-04-02T06:19:21.177Z,20.07
2023-04-02T06:20:21.276Z,20.06
2023-04-02T06:21:21.326Z,20.06
2023-04-02T06:22:21.351Z,20.05
2023-04-02T06:23:21.450Z,20.06
2023-04-02T06:24:21.464Z,20.05
2023-04-02T06:25:23.107Z,20.06
2023-04-02T06:26:21.625Z,20.05
2023-04-02T06:27:21.698Z,20.05
2023-04-02T06:28:21.782Z,20.06
2023-04-02T06:29:21.846Z,20.05
2023-04-02T06:30:21.915Z,20.05
2023-04-02T06:31:22.054Z,20.06
2023-04-02T06:32:22.032Z,20.05
2023-04-02T06:33:22.075Z,20.06
2023-04-02T06:34:22.141Z,20.06
2023-04-02T06:35:22.189Z,20.06
2023-04-02T06:36:22.307Z,20.06
2023-04-02T06:37:22.278Z,20.05
2023-04-02T06:38:22.287Z,20.06
2023-04-02T06:39:22.327Z,20.05
2023-04-02T06:40:22.335Z,20.05
2023-04-02T06:41:22.388Z,20.05
2023-04-02T06:42:22.398Z,20.06
2023-04-02T06:43:22.428Z,20.07
2023-04-02T06:44:22.455Z,20.10
2023-04-02T06:45:22.487Z,20.13
2023-04-02T06:46:22.567Z,20.17
2023-04-02T06:47:22.613Z,20.22
2023-04-02T06:48:22.670Z,20.27
2023-04-02T06:49:22.736Z,20.32
2023-04-02T06:50:22.789Z,20.34
2023-04-02T06:51:22.850Z,20.37
2023-04-02T06:52:22.902Z,20.40
2023-04-02T06:53:22.959Z,20.43
2023-04-02T06:54:23.082Z,20.45
2023-04-02T06:55:23.089Z,20.46
2023-04-02T06:56:23.129Z,20.47
2023-04-02T06:57:23.231Z,20.48
2023-04-02T06:58:23.240Z,20.48
2023-04-02T06:59:23.296Z,20.49
2023-04-02T07:00:23.343Z,20.50
2023-04-02T07:01:23.436Z,20.50
2023-04-02T07:02:23.466Z,20.50
2023-04-02T07:03:23.586Z,20.50
2023-04-02T07:04:23.587Z,20.52
2023-04-02T07:05:23.634Z,20.51
2023-04-02T07:06:23.682Z,20.52
2023-04-02T07:07:23.728Z,20.52
2023-04-02T07:08:23.797Z,20.53
2023-04-02T07:09:23.845Z,20.53
2023-04-02T07:10:23.898Z,20.55
2023-04-02T07:11:23.949Z,20.56
2023-04-02T07:12:23.998Z,20.57
2023-04-02T07:13:24.112Z,20.59
2023-04-02T07:14:24.070Z,20.59
2023-04-02T07:15:24.147Z,20.61
2023-04-02T07:16:24.161Z,20.62
2023-04-02T07:17:24.193Z,20.63
2023-04-02T07:18:24.200Z,20.65
2023-04-02T07:19:24.245Z,20.67
2023-04-02T07:20:24.349Z,20.70
2023-04-02T07:21:25.125Z,20.70
2023-04-02T07:22:24.339Z,20.72
2023-04-02T07:23:24.367Z,20.74
2023-04-02T07:24:24.400Z,20.76
2023-04-02T07:25:24.429Z,20.78
2023-04-02T07:26:24.460Z,20.80
2023-04-02T07:27:24.491Z,20.83
2023-04-02T07:28:24.535Z,20.84
2023-04-02T07:29:24.546Z,20.87
2023-04-02T07:30:24.585Z,20.88
2023-04-02T07:31:24.633Z,20.90
2023-04-02T07:32:24.597Z,20.92
2023-04-02T07:33:24.615Z,20.93
2023-04-02T07:34:24.630Z,20.94
2023-04-02T07:35:24.645Z,20.95
2023-04-02T07:36:24.661Z,20.96
2023-04-02T07:37:24.656Z,20.97
2023-04-02T07:38:24.673Z,20.98
2023-04-02T07:39:24.679Z,20.98
2023-04-02T07:40:24.693Z,20.99
2023-04-02T07:41:24.689Z,20.99
2023-04-02T07:42:24.685Z,21.00
2023-04-02T07:43:24.699Z,21.03
2023-04-02T07:44:24.725Z,21.04
2023-04-02T07:45:24.711Z,21.05
2023-04-02T07:46:24.749Z,21.07
2023-04-02T07:47:24.718Z,21.10
2023-04-02T07:48:24.721Z,21.11
2023-04-02T07:49:24.720Z,21.12
2023-04-02T07:50:24.742Z,21.14
2023-04-02T07:51:24.736Z,21.14
2023-04-02T07:52:24.721Z,21.14
2023-04-02T07:53:24.733Z,21.15
2023-04-02T07:54:24.727Z,21.13
2023-04-02T07:55:24.730Z,21.13
2023-04-02T07:56:24.729Z,21.13
2023-04-02T07:57:24.738Z,21.12
2023-04-02T07:58:24.727Z,21.12
2023-04-02T07:59:24.737Z,21.15
2023-04-02T08:00:24.758Z,21.17
2023-04-02T08:01:24.758Z,21.19
2023-04-02T08:02:24.869Z,21.21
2023-04-02T08:03:24.889Z,21.21
2023-04-02T08:04:24.976Z,21.21
2023-04-02T08:05:24.862Z,21.21
2023-04-02T08:06:24.893Z,21.24
2023-04-02T08:07:24.925Z,21.26
2023-04-02T08:08:24.926Z,21.28
2023-04-02T08:09:24.969Z,21.28
2023-04-02T08:10:24.998Z,21.28
2023-04-02T08:11:25.051Z,21.28
2023-04-02T08:12:25.068Z,21.28
2023-04-02T08:13:25.096Z,21.27
2023-04-02T08:14:25.111Z,21.26
2023-04-02T08:15:25.121Z,21.25
2023-04-02T08:16:25.154Z,21.24
2023-04-02T08:17:26.158Z,21.23
2023-04-02T08:18:25.202Z,21.23
2023-04-02T08:19:25.158Z,21.22
2023-04-02T08:20:25.162Z,21.22
2023-04-02T08:21:25.154Z,21.21
2023-04-02T08:22:25.151Z,21.21
2023-04-02T08:23:25.152Z,21.20
2023-04-02T08:24:25.135Z,21.20
2023-04-02T08:25:25.159Z,21.19
2023-04-02T08:26:25.129Z,21.18
2023-04-02T08:27:25.150Z,21.18
2023-04-02T08:28:25.140Z,21.18
2023-04-02T08:29:25.128Z,21.17
2023-04-02T08:30:25.137Z,21.18
2023-04-02T08:31:25.240Z,21.17
2023-04-02T08:32:25.120Z,21.17
2023-04-02T08:33:25.122Z,21.17
2023-04-02T08:34:25.117Z,21.16
2023-04-02T08:35:25.119Z,21.15
2023-04-02T08:36:25.133Z,21.16
2023-04-02T08:37:25.095Z,21.15
2023-04-02T08:38:25.094Z,21.14
2023-04-02T08:39:26.753Z,21.14
2023-04-02T08:40:25.098Z,21.14
2023-04-02T08:41:25.090Z,21.14
2023-04-02T08:42:25.072Z,21.13
2023-04-02T08:43:25.611Z,21.13
2023-04-02T08:44:25.065Z,21.12
2023-04-02T08:45:25.748Z,21.12
2023-04-02T08:46:25.091Z,21.12
2023-04-02T08:47:25.074Z,21.11
2023-04-02T08:48:25.054Z,21.11
2023-04-02T08:49:25.073Z,21.11
2023-04-02T08:50:25.079Z,21.11
2023-04-02T08:51:25.125Z,21.11
2023-04-02T08:52:25.168Z,21.12
2023-04-02T08:53:25.098Z,21.12
2023-04-02T08:54:25.099Z,21.11
2023-04-02T08:55:25.105Z,21.11
2023-04-02T08:56:25.115Z,21.11
2023-04-02T08:57:25.106Z,21.11
2023-04-02T08:58:25.096Z,21.11
2023-04-02T08:59:25.105Z,21.11
2023-04-02T09:00:25.092Z,21.11
2023-04-02T09:01:25.654Z,21.11
2023-04-02T09:02:25.140Z,21.11
2023-04-02T09:03:25.094Z,21.11
2023-04-02T09:04:25.164Z,21.11
2023-04-02T09:05:25.118Z,21.11
2023-04-02T09:06:25.093Z,21.11
2023-04-02T09:07:25.105Z,21.11
2023-04-02T09:08:25.114Z,21.14
2023-04-02T09:09:25.120Z,21.15
2023-04-02T09:10:25.121Z,21.16
2023-04-02T09:11:25.107Z,21.17
2023-04-02T09:12:25.112Z,21.18
2023-04-02T09:13:25.131Z,21.19
2023-04-02T09:14:25.138Z,21.20
2023-04-02T09:15:25.150Z,21.20
2023-04-02T09:16:25.164Z,21.21
2023-04-02T09:17:25.119Z,21.22
2023-04-02T09:18:25.140Z,21.24
2023-04-02T09:19:25.120Z,21.23
2023-04-02T09:20:25.199Z,21.23
2023-04-02T09:21:25.129Z,21.23
2023-04-02T09:22:25.157Z,21.25
2023-04-02T09:23:25.155Z,21.26
2023-04-02T09:24:25.221Z,21.28
2023-04-02T09:25:25.137Z,21.29
2023-04-02T09:26:25.178Z,21.31
2023-04-02T09:27:25.206Z,21.34
2023-04-02T09:28:25.182Z,21.36
2023-04-02T09:29:25.212Z,21.39
2023-04-02T09:30:25.239Z,21.41
2023-04-02T09:31:26.232Z,21.42
2023-04-02T09:32:25.321Z,21.44
2023-04-02T09:33:25.302Z,21.46
2023-04-02T09:34:25.404Z,21.48
2023-04-02T09:35:36.719Z,21.50
2023-04-02T09:36:26.436Z,21.52
2023-04-02T09:37:25.365Z,21.53
2023-04-02T09:38:25.331Z,21.55
2023-04-02T09:39:25.311Z,21.57
2023-04-02T09:40:25.295Z,21.59
2023-04-02T09:41:25.276Z,21.61
2023-04-02T09:42:25.256Z,21.62
2023-04-02T09:43:25.266Z,21.62
2023-04-02T09:44:25.258Z,21.61
2023-04-02T09:45:25.290Z,21.60
2023-04-02T09:46:25.372Z,21.59
2023-04-02T09:47:25.433Z,21.58
2023-04-02T09:48:25.443Z,21.57
2023-04-02T09:49:25.486Z,21.57
2023-04-02T09:50:25.524Z,21.55
2023-04-02T09:51:25.561Z,21.56
2023-04-02T09:52:25.608Z,21.55
2023-04-02T09:53:25.729Z,21.54
2023-04-02T09:54:25.738Z,21.54
2023-04-02T09:55:25.768Z,21.53
2023-04-02T09:56:25.815Z,21.52
2023-04-02T09:57:25.896Z,21.51
2023-04-02T09:58:25.904Z,21.51
2023-04-02T09:59:25.969Z,21.51
2023-04-02T10:00:31.995Z,21.50
2023-04-02T10:01:27.047Z,21.48
2023-04-02T10:02:26.009Z,21.48
2023-04-02T10:03:25.957Z,21.48
2023-04-02T10:04:26.412Z,21.47
2023-04-02T10:05:39.270Z,21.46
2023-04-02T10:06:26.918Z,21.45
2023-04-02T10:07:25.907Z,21.45
2023-04-02T10:08:25.893Z,21.44
2023-04-02T10:09:25.877Z,21.44
2023-04-02T10:10:26.421Z,21.43
2023-04-02T10:11:30.900Z,21.43
2023-04-02T10:12:26.862Z,21.42
2023-04-02T10:13:25.838Z,21.41
2023-04-02T10:14:25.842Z,21.41
2023-04-02T10:15:25.909Z,21.41
2023-04-02T10:16:27.192Z,21.40
2023-04-02T10:17:25.836Z,21.40
2023-04-02T10:18:25.808Z,21.39
2023-04-02T10:19:25.778Z,21.40
2023-04-02T10:20:25.794Z,21.38
2023-04-02T10:21:25.855Z,21.39
2023-04-02T10:22:25.893Z,21.38
2023-04-02T10:23:25.942Z,21.38
2023-04-02T10:24:25.993Z,21.37
2023-04-02T10:25:26.033Z,21.36
2023-04-02T10:26:26.091Z,21.36
2023-04-02T10:27:26.130Z,21.36
2023-04-02T10:28:26.186Z,21.36
2023-04-02T10:29:26.262Z,21.35
2023-04-02T10:30:26.307Z,21.35
2023-04-02T10:31:26.422Z,21.34
2023-04-02T10:32:26.402Z,21.34
2023-04-02T10:33:26.419Z,21.34
2023-04-02T10:34:26.474Z,21.34
2023-04-02T10:35:26.552Z,21.34
2023-04-02T10:36:26.592Z,21.33
2023-04-02T10:37:26.645Z,21.33
2023-04-02T10:38:26.692Z,21.33
2023-04-02T10:39:26.692Z,21.32
2023-04-02T10:40:26.718Z,21.32
2023-04-02T10:41:26.751Z,21.32
2023-04-02T10:42:26.750Z,21.32
2023-04-02T10:43:26.747Z,21.31
2023-04-02T10:44:26.765Z,21.31
2023-04-02T10:45:26.747Z,21.31
2023-04-02T10:46:26.822Z,21.30
2023-04-02T10:47:26.821Z,21.30
2023-04-02T10:48:26.814Z,21.30
2023-04-02T10:49:26.833Z,21.30
2023-04-02T10:50:26.815Z,21.29
2023-04-02T10:51:26.808Z,21.29
2023-04-02T10:52:26.847Z,21.29
2023-04-02T10:53:26.846Z,21.28
2023-04-02T10:54:26.842Z,21.29
2023-04-02T10:55:26.848Z,21.28
2023-04-02T10:56:27.139Z,21.28
2023-04-02T10:57:26.910Z,21.27
2023-04-02T10:58:26.821Z,21.27
2023-04-02T10:59:26.821Z,21.28
2023-04-02T11:00:26.811Z,21.27
2023-04-02T11:01:26.826Z,21.26
2023-04-02T11:02:26.930Z,21.26
2023-04-02T11:03:26.918Z,21.26
2023-04-02T11:04:26.826Z,21.26
2023-04-02T11:05:26.831Z,21.25
2023-04-02T11:06:27.616Z,21.25
2023-04-02T11:07:26.843Z,21.25
2023-04-02T11:08:26.841Z,21.25
2023-04-02T11:09:28.243Z,21.24
2023-04-02T11:10:26.903Z,21.25
2023-04-02T11:11:26.862Z,21.24
2023-04-02T11:12:26.840Z,21.24
2023-04-02T11:13:26.857Z,21.24
2023-04-02T11:14:26.848Z,21.24
2023-04-02T11:15:26.865Z,21.23
2023-04-02T11:16:26.888Z,21.24
2023-04-02T11:17:26.892Z,21.23
2023-04-02T11:18:26.877Z,21.23
2023-04-02T11:19:26.909Z,21.22
2023-04-02T11:20:27.047Z,21.23
2023-04-02T11:21:26.980Z,21.23
2023-04-02T11:22:26.957Z,21.22
2023-04-02T11:23:26.947Z,21.22
2023-04-02T11:24:26.971Z,21.22
2023-04-02T11:25:26.984Z,21.22
2023-04-02T11:26:26.978Z,21.22
2023-04-02T11:27:26.999Z,21.22
2023-04-02T11:28:26.982Z,21.21
2023-04-02T11:29:26.975Z,21.21
2023-04-02T11:30:26.991Z,21.21
2023-04-02T11:31:27.789Z,21.21
2023-04-02T11:32:26.991Z,21.21
2023-04-02T11:33:36.352Z,21.21
2023-04-02T11:34:27.959Z,21.20
2023-04-02T11:35:26.944Z,21.20
2023-04-02T11:36:26.924Z,21.20
2023-04-02T11:37:26.911Z,21.20
2023-04-02T11:38:26.913Z,21.20
2023-04-02T11:39:26.905Z,21.20
2023-04-02T11:40:26.885Z,21.21
2023-04-02T11:41:26.879Z,21.20
2023-04-02T11:42:26.859Z,21.20
2023-04-02T11:43:26.852Z,21.20
2023-04-02T11:44:26.843Z,21.19
2023-04-02T11:45:26.840Z,21.20
2023-04-02T11:46:26.885Z,21.20
2023-04-02T11:47:26.960Z,21.20
2023-04-02T11:48:26.832Z,21.20
2023-04-02T11:49:26.810Z,21.19
2023-04-02T11:50:26.814Z,21.20
2023-04-02T11:51:26.813Z,21.19
2023-04-02T11:52:26.809Z,21.19
2023-04-02T11:53:26.801Z,21.19
2023-04-02T11:54:26.811Z,21.18
2023-04-02T11:55:26.876Z,21.19
2023-04-02T11:56:26.785Z,21.19
2023-04-02T11:57:26.891Z,21.18
2023-04-02T11:58:26.768Z,21.19
2023-04-02T11:59:26.751Z,21.19
2023-04-02T12:00:26.736Z,21.19
2023-04-02T12:01:26.730Z,21.18
2023-04-02T12:02:26.817Z,21.18
2023-04-02T12:03:26.706Z,21.18
2023-04-02T12:04:26.701Z,21.17
2023-04-02T12:05:26.807Z,21.18
2023-04-02T12:06:26.689Z,21.17
2023-04-02T12:07:26.813Z,21.17
2023-04-02T12:08:26.673Z,21.17
2023-04-02T12:09:26.675Z,21.17
2023-04-02T12:10:26.654Z,21.17
2023-04-02T12:11:26.702Z,21.17
2023-04-02T12:12:26.694Z,21.17
2023-04-02T12:13:26.697Z,21.16
2023-04-02T12:14:26.648Z,21.17
2023-04-02T12:15:26.663Z,21.16
2023-04-02T12:16:26.706Z,21.16
2023-04-02T12:17:26.714Z,21.16
2023-04-02T12:18:26.669Z,21.17
2023-04-02T12:19:26.680Z,21.16
2023-04-02T12:20:26.674Z,21.15
2023-04-02T12:21:26.672Z,21.15
2023-04-02T12:22:26.670Z,21.16
2023-04-02T12:23:26.681Z,21.15
2023-04-02T12:24:26.681Z,21.15
2023-04-02T12:25:26.725Z,21.15
2023-04-02T12:26:26.824Z,21.14
2023-04-02T12:27:26.728Z,21.15
2023-04-02T12:28:26.747Z,21.15
2023-04-02T12:29:26.826Z,21.15
2023-04-02T12:30:27.689Z,21.15
2023-04-02T12:31:26.882Z,21.14
2023-04-02T12:32:29.445Z,21.14
2023-04-02T12:33:26.744Z,21.14
2023-04-02T12:34:26.802Z,21.15
2023-04-02T12:35:26.731Z,21.14
2023-04-02T12:36:26.707Z,21.14
2023-04-02T12:37:26.704Z,21.14
2023-04-02T12:38:26.690Z,21.14
2023-04-02T12:39:28.289Z,21.14
2023-04-02T12:40:26.673Z,21.13
2023-04-02T12:41:26.671Z,21.13
2023-04-02T12:42:26.663Z,21.14
2023-04-02T12:43:26.649Z,21.14
2023-04-02T12:44:26.657Z,21.13
2023-04-02T12:45:29.167Z,21.14
2023-04-02T12:46:26.724Z,21.14
2023-04-02T12:47:26.641Z,21.13
2023-04-02T12:48:27.115Z,21.13
2023-04-02T12:49:26.581Z,21.13
2023-04-02T12:50:26.575Z,21.13
2023-04-02T12:51:28.351Z,21.13
2023-04-02T12:52:26.551Z,21.13
2023-04-02T12:53:26.542Z,21.13